Time;durP1;ratioP1;P1;durP2;ratioP2;P2;SDS_P1;SDS_P2;PMS_P1;PMS_P2;Temp;Humidity;BMP_temperature;BMP_pressure;BME280_temperature;BME280_humidity;BME280_pressure;Samples;Min_cycle;Max_cycle;Signal;HPM_P1;HPM_P2
2022/04/10 00:01:28;;;;;;;4.30;2.50;;;;;;;3.11;70.91;100953.91;4813219;29;20476;-73
2022/04/10 00:03:53;;;;;;;5.15;2.60;;;;;;;3.09;70.86;100948.66;4829313;29;20102;-73
2022/04/10 00:06:19;;;;;;;3.90;2.55;;;;;;;3.05;71.11;100955.69;4828256;29;20030;-73
2022/04/10 00:08:44;;;;;;;5.18;2.38;;;;;;;3.00;71.39;100950.06;4828898;29;20038;-73
2022/04/10 00:11:10;;;;;;;6.47;2.60;;;;;;;3.01;71.39;100950.88;4827989;29;20045;-74
2022/04/10 00:13:36;;;;;;;6.25;2.47;;;;;;;3.00;71.59;100954.72;4811183;29;20042;-74
2022/04/10 00:16:03;;;;;;;8.95;2.40;;;;;;;2.99;71.66;100951.13;4828040;29;20116;-75
2022/04/10 00:18:28;;;;;;;8.05;2.50;;;;;;;2.95;71.85;100960.88;4813126;29;20038;-74
2022/04/10 00:20:53;;;;;;;5.75;2.60;;;;;;;2.93;71.82;100953.97;4818951;29;20098;-74
2022/04/10 00:23:19;;;;;;;6.13;2.40;;;;;;;2.93;71.82;100949.31;4810541;29;20035;-74
2022/04/10 00:25:44;;;;;;;4.03;2.22;;;;;;;2.90;71.93;100950.63;4809815;29;20034;-73
2022/04/10 00:28:10;;;;;;;6.63;2.50;;;;;;;2.90;72.16;100945.13;4812504;29;20042;-73
2022/04/10 00:30:35;;;;;;;5.65;2.13;;;;;;;2.82;72.41;100942.72;4812885;29;20031;-74
2022/04/10 00:33:01;;;;;;;4.30;2.30;;;;;;;2.77;72.51;100945.31;4797590;29;20034;-74
2022/04/10 00:35:27;;;;;;;5.30;2.58;;;;;;;2.80;72.57;100944.84;4827832;29;20117;-74
2022/04/10 00:37:52;;;;;;;3.53;2.20;;;;;;;2.73;72.49;100944.13;4827909;29;20042;-74
2022/04/10 00:40:18;;;;;;;4.63;2.65;;;;;;;2.73;72.45;100944.13;4827857;29;20034;-73
2022/04/10 00:42:48;;;;;;;7.30;2.63;;;;;;;2.65;72.74;100936.22;4826710;29;20041;-75
2022/04/10 00:45:13;;;;;;;7.93;2.75;;;;;;;2.66;72.65;100935.13;4813620;29;20042;-74
2022/04/10 00:47:39;;;;;;;3.35;2.33;;;;;;;2.57;73.01;100931.03;4831630;29;20034;-74
2022/04/10 00:50:06;;;;;;;5.32;2.17;;;;;;;2.54;72.85;100929.59;4829463;29;20034;-75
2022/04/10 00:52:31;;;;;;;6.15;2.88;;;;;;;2.52;73.02;100930.91;4812591;29;20092;-74
2022/04/10 00:54:57;;;;;;;3.38;2.15;;;;;;;2.45;72.98;100937.31;4809593;29;20038;-74
2022/04/10 00:57:23;;;;;;;5.45;2.47;;;;;;;2.47;73.25;100929.66;4810698;29;20039;-74
2022/04/10 00:59:48;;;;;;;6.13;2.47;;;;;;;2.40;73.23;100928.94;4812346;29;20035;-74
2022/04/10 01:02:14;;;;;;;5.60;2.40;;;;;;;2.39;73.28;100923.66;4827090;29;20072;-74
2022/04/10 01:04:40;;;;;;;5.93;2.55;;;;;;;2.35;73.44;100926.03;4828739;29;20038;-74
2022/04/10 01:07:05;;;;;;;4.95;2.40;;;;;;;2.34;73.49;100924.38;4828512;29;20031;-74
2022/04/10 01:09:33;;;;;;;4.20;2.70;;;;;;;2.30;73.36;100919.56;4827123;29;20039;-73
2022/04/10 01:11:59;;;;;;;3.78;2.30;;;;;;;2.30;73.28;100914.09;4830171;29;20044;-75
2022/04/10 01:14:25;;;;;;;4.97;2.67;;;;;;;2.21;73.61;100913.56;4814840;29;20034;-75
2022/04/10 01:16:50;;;;;;;5.28;2.80;;;;;;;2.19;73.80;100913.78;4811994;29;20476;-75
2022/04/10 01:19:16;;;;;;;4.80;2.45;;;;;;;2.15;73.47;100912.56;4811940;29;20089;-75
2022/04/10 01:21:46;;;;;;;4.63;2.58;;;;;;;2.13;73.32;100911.13;4811941;29;20041;-75
2022/04/10 01:24:15;;;;;;;4.35;2.45;;;;;;;2.08;73.65;100902.75;4826946;29;20079;-74
2022/04/10 01:26:41;;;;;;;8.88;2.83;;;;;;;2.04;73.80;100901.53;4827102;29;20369;-72
2022/04/10 01:29:08;;;;;;;4.55;2.30;;;;;;;2.00;73.94;100895.66;4827969;29;20038;-74
2022/04/10 01:31:41;;;;;;;3.78;2.58;;;;;;;2.00;74.09;100895.66;4826915;29;20034;-73
2022/04/10 01:34:08;;;;;;;3.03;2.20;;;;;;;1.97;74.39;100899.69;4828299;29;20038;-73
2022/04/10 01:36:34;;;;;;;6.47;2.45;;;;;;;1.95;74.22;100896.38;4829136;29;20049;-73
2022/04/10 01:39:02;;;;;;;3.90;2.40;;;;;;;1.94;74.15;100886.44;4832285;29;20034;-73
2022/04/10 01:41:28;;;;;;;4.78;2.35;;;;;;;1.90;74.23;100887.16;4828151;29;20072;-73
2022/04/10 01:43:55;;;;;;;4.47;2.30;;;;;;;1.91;74.00;100881.44;4811265;29;20233;-73
2022/04/10 01:46:22;;;;;;;5.97;2.40;;;;;;;1.85;74.15;100879.59;4827975;29;20034;-73
2022/04/10 01:48:48;;;;;;;5.28;2.47;;;;;;;1.83;74.37;100883.63;4827859;29;20034;-73
2022/04/10 01:51:13;;;;;;;8.43;2.67;;;;;;;1.78;74.35;100876.94;4826377;29;20091;-73
2022/04/10 01:53:39;;;;;;;5.68;2.78;;;;;;;1.76;74.54;100872.75;4827927;29;20062;-73
2022/04/10 01:56:05;;;;;;;4.50;2.65;;;;;;;1.74;74.50;100863.94;4827629;29;20492;-73
2022/04/10 01:58:31;;;;;;;5.45;2.65;;;;;;;1.71;74.67;100859.75;4826275;29;20066;-73
2022/04/10 02:00:56;;;;;;;5.78;2.70;;;;;;;1.69;74.71;100871.97;4841556;29;20046;-73
2022/04/10 02:03:22;;;;;;;5.80;2.25;;;;;;;1.67;74.89;100863.16;4829937;29;20039;-73
2022/04/10 02:05:47;;;;;;;5.80;2.75;;;;;;;1.64;74.82;100866.34;4828776;29;20095;-73
2022/04/10 02:08:13;;;;;;;9.25;2.80;;;;;;;1.60;74.73;100862.41;4824409;29;20053;-73
2022/04/10 02:10:39;;;;;;;7.97;2.97;;;;;;;1.60;74.70;100867.88;4784089;29;20559;-73
2022/04/10 02:13:06;;;;;;;5.75;3.08;;;;;;;1.58;74.68;100870.00;4827302;29;20034;-73
2022/04/10 02:15:31;;;;;;;5.07;3.22;;;;;;;1.54;74.70;100869.63;4825285;29;20512;-73
2022/04/10 02:17:57;;;;;;;7.13;3.33;;;;;;;1.54;74.68;100856.75;4817528;29;20035;-73
2022/04/10 02:20:22;;;;;;;9.15;3.20;;;;;;;1.49;74.66;100864.81;4827398;29;20026;-73
2022/04/10 02:22:52;;;;;;;7.85;2.88;;;;;;;1.47;74.96;100861.44;4826098;29;20034;-73
2022/04/10 02:25:17;;;;;;;5.53;3.13;;;;;;;1.48;74.58;100859.56;4826489;29;20500;-73
2022/04/10 02:27:42;;;;;;;5.47;3.25;;;;;;;1.42;74.77;100855.84;4828415;29;20046;-74
2022/04/10 02:30:09;;;;;;;8.57;3.13;;;;;;;1.41;74.87;100862.34;4831521;29;20034;-75
2022/04/10 02:32:34;;;;;;;6.78;3.10;;;;;;;1.39;74.88;100856.25;4826669;29;20049;-73
2022/04/10 02:35:00;;;;;;;4.10;2.70;;;;;;;1.41;74.42;100853.31;4826179;29;20463;-73
2022/04/10 02:37:25;;;;;;;6.18;3.17;;;;;;;1.41;74.47;100858.78;4826259;29;20039;-73
2022/04/10 02:39:51;;;;;;;5.85;2.97;;;;;;;1.38;74.59;100853.75;4827255;29;20045;-73
2022/04/10 02:42:16;;;;;;;5.90;3.05;;;;;;;1.38;74.76;100854.59;4825304;29;20046;-73
2022/04/10 02:44:42;;;;;;;6.35;2.80;;;;;;;1.33;74.73;100854.44;4825151;29;20054;-73
2022/04/10 02:47:07;;;;;;;7.35;3.03;;;;;;;1.33;74.83;100849.78;4826421;29;20038;-73
2022/04/10 02:49:33;;;;;;;7.68;2.60;;;;;;;1.28;74.57;100848.78;4825319;29;20116;-73
2022/04/10 02:51:58;;;;;;;5.15;2.70;;;;;;;1.27;74.47;100849.84;4825050;29;20034;-73
2022/04/10 02:54:24;;;;;;;5.53;2.85;;;;;;;1.24;74.63;100845.66;4829249;29;20046;-73
2022/04/10 02:56:49;;;;;;;4.72;2.63;;;;;;;1.22;74.63;100852.44;4827620;29;20091;-73
2022/04/10 02:59:15;;;;;;;4.95;2.88;;;;;;;1.22;74.62;100849.69;4824585;29;20035;-73
2022/04/10 03:01:41;;;;;;;7.70;2.85;;;;;;;1.21;74.72;100853.50;4825263;29;20030;-73
2022/04/10 03:04:06;;;;;;;5.45;2.30;;;;;;;1.19;74.61;100845.50;4829301;29;20563;-73
2022/04/10 03:06:31;;;;;;;4.80;2.40;;;;;;;1.16;74.82;100850.59;4829577;29;20031;-73
2022/04/10 03:08:57;;;;;;;4.57;2.22;;;;;;;1.10;75.10;100846.84;4825508;29;20100;-73
2022/04/10 03:11:25;;;;;;;5.75;2.42;;;;;;;1.10;74.90;100850.41;4828031;29;20496;-73
2022/04/10 03:13:50;;;;;;;6.43;2.72;;;;;;;1.07;74.86;100850.88;4827525;29;20119;-73
2022/04/10 03:16:16;;;;;;;6.28;2.58;;;;;;;1.03;75.28;100863.34;4822359;29;20042;-73
2022/04/10 03:18:42;;;;;;;7.85;2.50;;;;;;;0.99;75.19;100848.41;4828634;29;20034;-73
2022/04/10 03:21:08;;;;;;;5.55;2.40;;;;;;;1.01;75.03;100857.25;4833215;29;20045;-73
2022/04/10 03:23:34;;;;;;;3.83;2.20;;;;;;;0.98;74.99;100854.13;4829554;29;20038;-73
2022/04/10 03:25:59;;;;;;;5.70;2.60;;;;;;;0.99;74.56;100855.78;4828937;29;20030;-73
2022/04/10 03:28:25;;;;;;;4.45;2.50;;;;;;;0.93;75.29;100848.47;4828787;29;20038;-73
2022/04/10 03:30:50;;;;;;;5.07;2.83;;;;;;;0.92;75.25;100855.84;4829030;29;20042;-73
2022/04/10 03:33:16;;;;;;;5.70;2.85;;;;;;;0.91;75.02;100850.59;4828927;29;20038;-73
2022/04/10 03:35:41;;;;;;;4.10;2.75;;;;;;;0.88;75.01;100854.59;4828954;29;20038;-73
2022/04/10 03:38:07;;;;;;;5.60;2.88;;;;;;;0.85;75.11;100849.56;4828900;29;20031;-73
2022/04/10 03:40:32;;;;;;;3.80;2.58;;;;;;;0.85;75.17;100860.50;4829048;29;20035;-73
2022/04/10 03:42:58;;;;;;;9.00;2.90;;;;;;;0.81;75.29;100851.94;4779937;29;1427156;-73
2022/04/10 03:45:23;;;;;;;5.05;2.80;;;;;;;0.81;75.21;100848.34;4832424;29;20038;-73
2022/04/10 03:47:49;;;;;;;5.72;2.78;;;;;;;0.77;75.10;100850.69;4832549;29;20099;-73
2022/04/10 03:50:14;;;;;;;6.63;2.75;;;;;;;0.76;75.21;100845.44;4829809;29;20476;-73
2022/04/10 03:52:40;;;;;;;6.05;2.92;;;;;;;0.73;75.24;100848.63;4828439;29;20034;-73
2022/04/10 03:55:05;;;;;;;5.32;2.63;;;;;;;0.73;75.13;100845.88;4829598;29;20046;-73
2022/04/10 03:57:31;;;;;;;5.05;2.40;;;;;;;0.70;74.95;100841.69;4829026;29;20146;-73
2022/04/10 03:59:57;;;;;;;5.90;2.97;;;;;;;0.70;75.11;100835.38;4829682;29;20030;-73
2022/04/10 04:02:22;;;;;;;4.78;2.72;;;;;;;0.64;75.11;100829.75;4828389;29;20513;-73
2022/04/10 04:04:49;;;;;;;6.60;3.40;;;;;;;0.61;75.38;100832.06;4829645;29;20396;-73
2022/04/10 04:07:15;;;;;;;4.55;2.72;;;;;;;0.63;75.14;100830.78;4829505;29;20035;-73
2022/04/10 04:09:40;;;;;;;6.82;2.80;;;;;;;0.64;75.12;100820.69;4828768;29;20122;-74
2022/04/10 04:12:06;;;;;;;9.32;2.80;;;;;;;0.59;75.48;100826.00;4832139;29;20046;-73
2022/04/10 04:14:32;;;;;;;4.72;2.33;;;;;;;0.54;75.34;100825.81;4829984;29;20488;-73
2022/04/10 04:16:59;;;;;;;2.92;2.13;;;;;;;0.51;75.41;100821.63;4817215;29;20030;-73
2022/04/10 04:19:24;;;;;;;3.60;2.40;;;;;;;0.49;75.25;100817.44;4829212;29;20045;-73
2022/04/10 04:21:50;;;;;;;6.07;2.97;;;;;;;0.48;75.49;100827.53;4828014;29;20038;-73
2022/04/10 04:24:15;;;;;;;4.55;2.72;;;;;;;0.46;75.40;100817.88;4829102;29;20038;-73
2022/04/10 04:26:41;;;;;;;6.35;2.78;;;;;;;0.44;75.51;100821.66;4829075;29;20037;-73
2022/04/10 04:29:09;;;;;;;4.47;2.63;;;;;;;0.44;75.04;100824.38;4828880;29;20030;-73
2022/04/10 04:31:34;;;;;;;8.32;2.67;;;;;;;0.42;75.53;100828.44;4827680;29;20041;-73
2022/04/10 04:34:00;;;;;;;5.93;2.40;;;;;;;0.43;75.54;100830.09;4829145;29;20034;-73
2022/04/10 04:36:25;;;;;;;6.13;2.40;;;;;;;0.38;75.47;100821.72;4831334;29;20404;-73
2022/04/10 04:38:52;;;;;;;5.25;2.60;;;;;;;0.35;75.85;100828.44;4812974;29;20050;-73
2022/04/10 04:41:18;;;;;;;6.82;2.60;;;;;;;0.34;75.99;100820.50;4823553;29;20045;-73
2022/04/10 04:43:44;;;;;;;4.22;2.45;;;;;;;0.35;75.83;100820.25;4826520;29;20062;-73
2022/04/10 04:46:09;;;;;;;4.90;2.08;;;;;;;0.34;75.66;100815.03;4827677;29;20027;-73
2022/04/10 04:48:35;;;;;;;5.32;2.30;;;;;;;0.29;75.46;100817.56;4828848;29;20042;-73
2022/04/10 04:51:02;;;;;;;5.28;2.03;;;;;;;0.26;75.76;100818.00;4828646;29;20046;-73
2022/04/10 04:53:28;;;;;;;6.60;2.50;;;;;;;0.26;75.88;100812.53;4828923;29;20090;-73
2022/04/10 04:55:53;;;;;;;6.15;2.42;;;;;;;0.20;76.22;100815.09;4828442;29;20500;-73
2022/04/10 04:58:19;;;;;;;6.28;2.92;;;;;;;0.18;76.13;100817.19;4828535;29;20064;-73
2022/04/10 05:00:45;;;;;;;4.10;2.50;;;;;;;0.18;76.28;100810.91;4828445;29;20030;-73
2022/04/10 05:03:11;;;;;;;4.50;2.33;;;;;;;0.19;76.24;100810.66;4816482;29;20033;-73
2022/04/10 05:05:36;;;;;;;7.60;2.40;;;;;;;0.22;76.08;100809.38;4829724;29;20026;-73
2022/04/10 05:08:03;;;;;;;3.85;2.20;;;;;;;0.23;76.13;100811.09;4812236;29;20098;-73
2022/04/10 05:10:29;;;;;;;5.47;2.83;;;;;;;0.16;76.43;100810.25;4827081;29;20083;-73
2022/04/10 05:12:54;;;;;;;5.15;2.30;;;;;;;0.13;76.35;100814.28;4828163;29;20099;-73
2022/04/10 05:15:20;;;;;;;4.65;2.03;;;;;;;0.13;76.68;100814.28;4827660;29;20042;-73
2022/04/10 05:17:45;;;;;;;5.60;2.03;;;;;;;0.11;76.94;100816.41;4815864;29;20155;-73
2022/04/10 05:20:11;;;;;;;8.40;2.40;;;;;;;0.14;76.72;100818.69;4828378;29;20041;-73
2022/04/10 05:22:36;;;;;;;6.15;2.20;;;;;;;0.11;76.74;100810.94;4827132;29;20034;-73
2022/04/10 05:25:02;;;;;;;4.50;2.38;;;;;;;0.09;76.86;100806.75;4827439;29;20042;-73
2022/04/10 05:27:28;;;;;;;5.97;2.47;;;;;;;0.10;76.85;100806.50;4818893;29;20030;-73
2022/04/10 05:29:53;;;;;;;2.58;1.88;;;;;;;0.09;77.21;100804.03;4831328;29;20163;-73
2022/04/10 05:32:18;;;;;;;5.50;2.28;;;;;;;0.14;77.12;100805.03;4826939;29;20034;-73
2022/04/10 05:34:45;;;;;;;3.72;2.17;;;;;;;0.14;77.33;100807.78;4828410;29;20380;-73
2022/04/10 05:37:10;;;;;;;3.60;2.17;;;;;;;0.13;77.42;100813.44;4828049;29;20069;-73
2022/04/10 05:39:38;;;;;;;2.40;2.10;;;;;;;0.16;77.39;100808.38;4826971;29;20487;-73
2022/04/10 05:42:04;;;;;;;4.00;2.22;;;;;;;0.17;77.61;100814.69;4827807;29;20045;-73
2022/04/10 05:44:29;;;;;;;3.35;2.20;;;;;;;0.19;78.39;100818.84;4826630;29;20127;-73
2022/04/10 05:46:55;;;;;;;3.03;2.10;;;;;;;0.22;78.38;100823.91;4825521;29;20042;-73
2022/04/10 05:49:20;;;;;;;4.10;2.10;;;;;;;0.32;78.56;100819.84;4826704;29;20038;-73
2022/04/10 05:51:47;;;;;;;6.00;2.03;;;;;;;0.36;78.46;100826.53;4828334;29;20042;-73
2022/04/10 05:54:14;;;;;;;4.03;2.28;;;;;;;0.39;78.69;100826.97;4830160;29;20038;-73
2022/04/10 05:56:39;;;;;;;3.70;2.20;;;;;;;0.47;78.85;100836.78;4811866;29;20069;-73
2022/04/10 05:59:05;;;;;;;5.70;2.13;;;;;;;0.55;79.23;100828.31;4811128;29;20049;-73
2022/04/10 06:01:30;;;;;;;5.47;2.72;;;;;;;0.63;80.14;100824.50;4826462;29;20105;-73
2022/04/10 06:03:56;;;;;;;6.07;2.92;;;;;;;0.68;80.15;100832.03;4827792;29;20034;-73
2022/04/10 06:06:21;;;;;;;7.85;3.63;;;;;;;0.72;82.63;100828.63;4827782;29;20027;-74
2022/04/10 06:08:47;;;;;;;10.45;3.78;;;;;;;0.77;84.93;100828.81;4822418;29;20468;-74
2022/04/10 06:11:12;;;;;;;6.18;3.10;;;;;;;0.86;84.35;100835.69;4827706;29;20045;-74
2022/04/10 06:13:38;;;;;;;7.93;3.15;;;;;;;0.97;86.41;100820.44;4827290;29;20034;-71
2022/04/10 06:16:04;;;;;;;9.73;3.45;;;;;;;1.08;84.46;100827.91;4821509;29;20035;-71
2022/04/10 06:18:29;;;;;;;6.15;2.95;;;;;;;1.22;82.89;100825.06;4823864;29;20034;-71
2022/04/10 06:20:55;;;;;;;6.55;3.55;;;;;;;1.34;86.50;100826.84;4830765;29;20034;-71
2022/04/10 06:23:23;;;;;;;7.65;2.85;;;;;;;1.48;84.06;100822.09;4827203;29;20030;-71
2022/04/10 06:25:49;;;;;;;7.72;2.70;;;;;;;1.66;84.17;100828.63;4827423;29;20102;-71
2022/04/10 06:28:14;;;;;;;7.47;3.17;;;;;;;1.85;82.91;100821.25;4826249;29;20054;-72
2022/04/10 06:30:40;;;;;;;7.10;3.35;;;;;;;2.01;85.32;100820.66;4827362;29;20064;-72
2022/04/10 06:33:05;;;;;;;7.32;3.20;;;;;;;2.22;83.29;100822.88;4826065;29;20030;-72
2022/04/10 06:35:31;;;;;;;11.18;3.33;;;;;;;2.42;83.12;100813.53;4826626;29;20065;-72
2022/04/10 06:37:57;;;;;;;7.72;3.05;;;;;;;2.63;82.37;100823.16;4827034;29;20039;-72
2022/04/10 06:40:22;;;;;;;7.65;3.45;;;;;;;2.84;82.13;100819.03;4826166;29;20072;-72
2022/04/10 06:42:47;;;;;;;8.80;3.78;;;;;;;3.02;81.19;100810.72;4825854;29;20528;-72
2022/04/10 06:45:13;;;;;;;7.32;3.28;;;;;;;3.23;80.28;100816.69;4829988;29;20037;-72
2022/04/10 06:47:38;;;;;;;6.80;3.35;;;;;;;3.43;79.85;100813.63;4827482;29;20035;-72
2022/04/10 06:50:04;;;;;;;8.35;3.40;;;;;;;3.64;80.69;100815.72;4825877;29;20038;-72
2022/04/10 06:52:30;;;;;;;9.50;3.47;;;;;;;3.83;81.64;100815.59;4827155;29;20041;-72
2022/04/10 06:54:56;;;;;;;6.72;3.40;;;;;;;4.01;81.52;100812.66;4826029;29;20042;-72
2022/04/10 06:57:21;;;;;;;9.13;3.80;;;;;;;4.20;80.18;100816.06;4810279;29;20037;-72
2022/04/10 06:59:47;;;;;;;6.25;2.92;;;;;;;4.40;80.87;100801.88;4822993;29;20042;-72
2022/04/10 07:02:12;;;;;;;7.00;3.25;;;;;;;4.57;79.94;100805.53;4821836;29;20042;-73
2022/04/10 07:04:38;;;;;;;9.10;3.92;;;;;;;4.75;80.92;100803.63;4825862;29;20501;-72
2022/04/10 07:07:03;;;;;;;9.60;3.78;;;;;;;4.89;79.15;100808.56;4795639;29;20026;-72
2022/04/10 07:09:29;;;;;;;8.23;3.30;;;;;;;5.03;79.44;100814.56;4808396;29;20038;-73
2022/04/10 07:11:54;;;;;;;9.13;3.60;;;;;;;5.20;78.13;100811.00;4828885;29;20046;-73
2022/04/10 07:14:20;;;;;;;7.57;2.97;;;;;;;5.34;78.16;100801.28;4810640;29;20037;-72
2022/04/10 07:16:45;;;;;;;6.97;3.20;;;;;;;5.47;78.43;100813.91;4810341;29;20038;-72
2022/04/10 07:19:11;;;;;;;16.73;3.55;;;;;;;5.55;77.48;100816.22;4825693;29;20030;-73
2022/04/10 07:24:21;;;;;;;5.90;3.20;;;;;;;5.82;77.07;100816.31;4820475;29;20038;-72
2022/04/10 07:26:46;;;;;;;5.47;3.00;;;;;;;5.97;76.94;100819.31;4826302;29;20507;-73
2022/04/10 07:29:12;;;;;;;6.65;2.90;;;;;;;6.14;75.74;100824.75;4825591;29;20030;-73
2022/04/10 07:31:40;;;;;;;4.90;2.83;;;;;;;6.30;75.14;100817.50;4826630;29;20034;-73
2022/04/10 07:34:05;;;;;;;6.00;2.88;;;;;;;6.46;74.64;100818.50;4826730;29;20035;-73
2022/04/10 07:36:32;;;;;;;6.30;3.38;;;;;;;6.60;74.03;100810.63;4829283;29;20042;-72
2022/04/10 07:38:58;;;;;;;4.88;3.03;;;;;;;6.81;74.03;100818.03;4828488;29;20142;-72
2022/04/10 07:41:23;;;;;;;6.47;2.70;;;;;;;6.97;73.55;100819.03;4826592;29;20043;-72
2022/04/10 07:43:49;;;;;;;8.60;3.05;;;;;;;7.15;73.54;100817.78;4825154;29;20461;-72
2022/04/10 07:49:03;;;;;;;7.50;3.05;;;;;;;7.51;72.39;100821.63;4827203;29;20049;-78
2022/04/10 07:51:28;;;;;;;7.78;3.42;;;;;;;7.77;71.95;100819.88;4813698;29;20038;-74
2022/04/10 07:53:56;;;;;;;5.50;3.05;;;;;;;7.99;70.14;100814.16;4828784;29;20030;-79
2022/04/10 07:56:22;;;;;;;5.53;2.65;;;;;;;8.15;70.59;100819.78;4813722;29;20030;-79
2022/04/10 07:58:47;;;;;;;4.68;2.53;;;;;;;8.30;70.78;100825.34;4828992;29;20484;-79
2022/04/10 08:01:13;;;;;;;5.63;2.78;;;;;;;8.49;69.42;100826.56;4831454;29;20083;-79
2022/04/10 08:03:38;;;;;;;5.10;2.90;;;;;;;8.67;69.04;100816.94;4832213;29;20511;-79
2022/04/10 08:06:04;;;;;;;5.15;2.70;;;;;;;8.86;67.96;100819.16;4828697;29;20042;-79
2022/04/10 08:08:30;;;;;;;5.63;3.00;;;;;;;9.04;68.73;100818.63;4828322;29;20038;-79
2022/04/10 08:10:55;;;;;;;4.85;2.85;;;;;;;9.21;67.29;100825.84;4824791;29;20038;-79
2022/04/10 08:13:21;;;;;;;5.15;3.22;;;;;;;9.39;67.28;100823.34;4843420;29;20042;-79
2022/04/10 08:15:47;;;;;;;4.90;2.85;;;;;;;9.50;66.93;100804.75;4825301;29;20072;-73
2022/04/10 08:18:13;;;;;;;5.82;2.35;;;;;;;9.60;66.65;100812.22;4832337;29;20531;-73
2022/04/10 08:20:38;;;;;;;5.55;2.70;;;;;;;9.74;65.64;100804.13;4827490;29;20034;-74
2022/04/10 08:23:04;;;;;;;5.63;2.67;;;;;;;9.83;66.88;100806.06;4827800;29;20045;-74
2022/04/10 08:25:30;;;;;;;4.63;2.80;;;;;;;9.94;65.76;100801.28;4843354;29;20049;-73
2022/04/10 08:27:55;;;;;;;6.47;2.78;;;;;;;10.12;64.28;100793.47;4830984;29;20048;-73
2022/04/10 08:30:21;;;;;;;4.53;3.00;;;;;;;10.23;63.92;100804.25;4832910;29;20030;-73
2022/04/10 08:32:46;;;;;;;9.13;3.10;;;;;;;10.35;63.47;100798.38;4829339;29;20038;-73
2022/04/10 08:35:12;;;;;;;6.30;2.92;;;;;;;10.47;62.47;100807.22;4827679;29;20563;-73
2022/04/10 08:37:38;;;;;;;9.20;3.38;;;;;;;10.62;62.13;100802.69;4829036;29;20460;-73
2022/04/10 08:40:04;;;;;;;9.30;3.70;;;;;;;10.68;62.22;100787.66;4829048;29;20054;-74
2022/04/10 08:42:29;;;;;;;6.15;3.33;;;;;;;10.80;62.00;100782.53;4812618;29;20027;-74
2022/04/10 08:44:55;;;;;;;9.75;3.50;;;;;;;10.88;61.78;100792.22;4812761;29;20069;-74
2022/04/10 08:47:21;;;;;;;7.07;2.97;;;;;;;11.00;61.58;100777.94;4827960;29;20110;-74
2022/04/10 08:49:49;;;;;;;7.70;2.90;;;;;;;11.12;61.76;100765.34;4827591;29;20030;-73
2022/04/10 08:52:20;;;;;;;6.70;2.95;;;;;;;11.22;61.28;100769.97;4827724;29;20038;-74
2022/04/10 08:54:46;;;;;;;6.35;3.10;;;;;;;11.32;60.25;100774.63;4830960;29;20369;-73
2022/04/10 08:57:12;;;;;;;8.00;3.00;;;;;;;11.41;60.99;100768.13;4829880;29;20159;-74
2022/04/10 08:59:38;;;;;;;8.07;3.17;;;;;;;11.53;60.13;100764.09;4811336;29;20034;-74
2022/04/10 09:02:03;;;;;;;7.05;2.60;;;;;;;11.69;59.13;100771.16;4828586;29;20094;-74
2022/04/10 09:04:29;;;;;;;4.57;2.30;;;;;;;11.85;58.74;100767.13;4827655;29;20026;-74
2022/04/10 09:07:11;;;;;;;5.47;2.60;;;;;;;11.95;58.42;100768.13;4827403;29;20035;-74
2022/04/10 09:09:40;;;;;;;8.90;3.10;;;;;;;12.00;58.02;100765.28;4817515;29;20126;-74
2022/04/10 09:12:06;;;;;;;5.63;2.33;;;;;;;12.13;58.59;100770.13;4823277;29;20038;-74
2022/04/10 09:14:36;;;;;;;4.30;2.63;;;;;;;12.28;57.50;100769.91;4827083;29;20038;-74
2022/04/10 09:17:09;;;;;;;6.13;2.38;;;;;;;12.43;57.51;100765.28;4827559;29;20531;-74
2022/04/10 09:19:35;;;;;;;5.00;2.67;;;;;;;12.55;57.49;100760.06;4829739;29;20034;-74
2022/04/10 09:22:33;;;;;;;6.72;2.53;;;;;;;12.69;57.40;100758.19;4831539;29;20040;-74
2022/04/10 09:25:12;;;;;;;3.92;2.10;;;;;;;12.82;56.57;100751.03;4813172;29;20038;-74
2022/04/10 09:27:48;;;;;;;6.05;2.35;;;;;;;12.96;56.80;100740.75;4823404;29;20034;-73
2022/04/10 09:30:14;;;;;;;5.30;2.28;;;;;;;13.08;56.57;100751.41;4824765;29;20034;-74
2022/04/10 09:32:44;;;;;;;5.97;2.10;;;;;;;13.17;55.70;100751.53;4811771;29;20065;-74
2022/04/10 09:35:12;;;;;;;3.63;1.83;;;;;;;13.26;54.97;100748.91;4824120;29;20389;-74
2022/04/10 09:38:03;;;;;;;6.45;2.33;;;;;;;13.34;54.39;100756.56;4820470;29;20035;-71
2022/04/10 09:40:33;;;;;;;6.95;2.42;;;;;;;13.41;53.73;100734.69;4817453;29;20050;-71
2022/04/10 09:43:05;;;;;;;5.82;2.30;;;;;;;13.53;55.18;100748.97;4827711;29;20085;-73
2022/04/10 09:45:43;;;;;;;4.35;1.63;;;;;;;13.64;55.21;100744.00;4830247;29;20078;-74
2022/04/10 09:48:21;;;;;;;4.05;1.90;;;;;;;13.78;53.22;100746.81;4829927;29;20038;-74
2022/04/10 09:50:52;;;;;;;4.30;1.80;;;;;;;13.85;53.14;100741.66;4826631;29;20035;-74
2022/04/10 09:53:18;;;;;;;5.75;2.10;;;;;;;13.95;51.85;100730.25;4816519;29;20042;-77
2022/04/10 09:55:43;;;;;;;4.72;2.15;;;;;;;14.03;50.42;100734.28;4826429;29;20033;-75
2022/04/10 09:58:11;;;;;;;3.85;1.85;;;;;;;14.09;50.53;100738.63;4827649;29;20547;-75
2022/04/10 10:00:46;;;;;;;4.13;1.70;;;;;;;14.16;49.91;100730.66;4841562;29;20042;-75
2022/04/10 10:03:12;;;;;;;5.25;1.70;;;;;;;14.24;50.40;100729.09;4811448;29;20046;-75
2022/04/10 10:05:43;;;;;;;4.75;1.60;;;;;;;14.31;50.92;100723.91;4826603;29;20487;-80
2022/04/10 10:08:09;;;;;;;3.42;1.75;;;;;;;14.38;51.28;100727.09;4826512;29;20042;-80
2022/04/10 10:10:36;;;;;;;3.10;1.65;;;;;;;14.37;50.76;100713.44;4799070;29;20038;-75
2022/04/10 10:13:08;;;;;;;10.07;2.20;;;;;;;14.45;49.09;100729.44;4831303;29;20484;-77
2022/04/10 10:15:39;;;;;;;6.20;1.83;;;;;;;14.38;49.54;100724.31;4823812;29;20034;-79
2022/04/10 10:18:06;;;;;;;4.60;1.83;;;;;;;14.36;48.97;100723.78;4817049;29;20041;-75
2022/04/10 10:20:32;;;;;;;4.20;1.83;;;;;;;14.40;48.37;100718.38;4827549;29;20030;-75
2022/04/10 10:23:01;;;;;;;6.78;1.77;;;;;;;14.30;47.81;100713.88;4808380;29;20070;-76
2022/04/10 10:25:48;;;;;;;2.80;1.40;;;;;;;14.34;47.25;100716.84;4823650;29;20034;-76
2022/04/10 10:28:55;;;;;;;5.57;1.60;;;;;;;14.32;47.78;100717.19;4794990;29;20050;-76
2022/04/10 10:31:39;;;;;;;5.95;1.77;;;;;;;14.38;47.30;100706.72;4827517;29;20030;-74
2022/04/10 10:34:05;;;;;;;4.10;1.48;;;;;;;14.44;47.01;100711.88;4823154;29;20046;-74
2022/04/10 10:36:31;;;;;;;4.85;1.60;;;;;;;14.49;46.36;100714.53;4824976;29;20068;-74
2022/04/10 10:38:57;;;;;;;4.90;1.35;;;;;;;14.53;46.08;100707.19;4831382;29;20038;-73
2022/04/10 10:41:22;;;;;;;4.97;1.50;;;;;;;14.52;45.87;100697.19;4826224;29;20038;-73
2022/04/10 10:43:48;;;;;;;3.13;1.05;;;;;;;14.56;44.87;100702.13;4840851;29;20115;-76
2022/04/10 10:46:28;;;;;;;3.15;1.20;;;;;;;14.57;44.44;100687.00;4825987;29;20481;-76
2022/04/10 10:49:16;;;;;;;2.30;1.05;;;;;;;14.43;45.15;100682.28;4827102;29;20163;-75
2022/04/10 10:51:43;;;;;;;4.68;1.30;;;;;;;14.54;43.82;100694.06;4815649;29;20171;-75
2022/04/10 10:54:13;;;;;;;3.47;1.25;;;;;;;14.56;44.80;100674.19;4811102;29;20042;-74
2022/04/10 10:56:42;;;;;;;5.75;1.40;;;;;;;14.59;45.00;100679.97;4825597;29;20030;-74
2022/04/10 10:59:43;;;;;;;3.80;1.60;;;;;;;14.66;45.21;100673.94;4825932;29;20062;-74
2022/04/10 11:02:17;;;;;;;3.65;1.40;;;;;;;14.71;46.05;100676.63;4813774;29;20041;-75
2022/04/10 11:04:52;;;;;;;2.78;1.48;;;;;;;14.76;45.17;100662.47;4810484;29;20074;-75
2022/04/10 11:07:18;;;;;;;2.72;1.00;;;;;;;14.78;46.73;100657.41;4806718;29;20043;-74
2022/04/10 11:09:59;;;;;;;2.03;1.17;;;;;;;14.88;45.56;100647.94;4811699;29;20047;-77
2022/04/10 11:12:49;;;;;;;4.93;1.50;;;;;;;14.97;45.41;100651.59;4805985;29;20057;-74
2022/04/10 11:15:19;;;;;;;5.57;1.20;;;;;;;15.02;44.37;100648.69;4810608;29;20051;-73
2022/04/10 11:17:45;;;;;;;4.85;1.48;;;;;;;15.08;44.34;100649.38;4820785;29;20736;-74
2022/04/10 11:20:11;;;;;;;4.18;1.42;;;;;;;15.10;43.67;100652.66;4821548;29;20035;-74
2022/04/10 11:22:47;;;;;;;3.20;1.50;;;;;;;15.18;44.01;100649.06;4807254;29;20087;-74
2022/04/10 11:25:13;;;;;;;4.53;1.20;;;;;;;15.19;43.31;100645.16;4820847;29;20116;-73
2022/04/10 11:27:48;;;;;;;5.95;1.58;;;;;;;15.24;43.94;100633.81;4809676;29;20034;-73
2022/04/10 11:30:24;;;;;;;5.57;1.15;;;;;;;15.31;44.37;100631.38;4813087;29;20042;-74
2022/04/10 11:32:56;;;;;;;4.60;1.20;;;;;;;15.33;44.08;100629.06;4811739;29;20038;-73
2022/04/10 11:35:26;;;;;;;2.28;0.95;;;;;;;15.31;43.29;100624.94;4810031;29;20457;-74
2022/04/10 11:37:54;;;;;;;2.47;1.17;;;;;;;15.37;43.85;100623.66;4796049;29;20035;-73